Queen Isabella — A8IE2 — position and weather

sailwx.info

Track history (hours):
 
Tides and Currents Weather Stations Pressure Air Temp Water Temp Dewpoint Dewpoint Depression Visibility Wind Speed Wind Dir Waves Ship Positions

Queen Isabella

Last reported at 2017-Jan-17 18:33 UTC. Time now 2017-Jan-17 19:16 UTC.
Position N 37°42' W 009°34'.

Length 131 m; draft 6.1 m.

Type: Ship. MMSI: 636090959.

Date/timePositionNaut miles runAvg speedWind from/ knotsBaromVisibWave heightAir tempDewpointWater temp
2017-Jan-17 18:33N 37°42' W 009°34'1212.4
2017-Jan-17 17:33N 37°54' W 009°32'1212.5
2017-Jan-17 16:33N 38°07' W 009°30'1312.7
2017-Jan-17 15:32N 38°20' W 009°27'1212.7
2017-Jan-17 14:33N 38°32' W 009°25'1111.4
2017-Jan-17 13:33N 38°41' W 009°16'10 9.1
2017-Jan-17 12:29N 38°41' W 009°04'0 0.0
2017-Jan-17 11:32N 38°41' W 009°04'0 0.0
2017-Jan-17 10:32N 38°41' W 009°04'0 0.0
2017-Jan-17 09:29N 38°41' W 009°04'0 0.0
2017-Jan-17 08:32N 38°41' W 009°04'0 0.0
2017-Jan-17 07:32N 38°41' W 009°04'0 0.0
2017-Jan-17 06:32N 38°41' W 009°04'0 0.0
2017-Jan-17 05:29N 38°41' W 009°04'0 0.0
2017-Jan-17 04:29N 38°41' W 009°04'0 0.0
2017-Jan-17 03:32N 38°41' W 009°04'0 0.0
2017-Jan-17 02:32N 38°41' W 009°04'0 0.0
2017-Jan-17 01:32N 38°41' W 009°04'0 0.0
2017-Jan-17 00:32N 38°41' W 009°04'0 0.0
2017-Jan-16 23:32N 38°41' W 009°04'0 0.0
2017-Jan-16 22:32N 38°41' W 009°04'0 0.0
2017-Jan-16 21:29N 38°41' W 009°04'0 0.0
2017-Jan-16 20:32N 38°41' W 009°04'0 0.0
2017-Jan-16 19:32N 38°41' W 009°04'0 0.0
2017-Jan-16 18:32N 38°41' W 009°04'0 0.0
2017-Jan-16 17:32N 38°41' W 009°04'4 4.5
2017-Jan-16 16:34N 38°42' W 009°09'1212.2
2017-Jan-16 15:33N 38°38' W 009°24'2 2.3
2017-Jan-16 14:32N 38°37' W 009°27'8 8.0
2017-Jan-16 13:34N 38°29' W 009°28'3 2.9
2017-Jan-16 12:33N 38°26' W 009°28'1 0.8
2017-Jan-16 11:33N 38°27' W 009°29'1 0.8
2017-Jan-16 10:33N 38°27' W 009°29'1 0.7
2017-Jan-16 09:33N 38°28' W 009°30'1 0.7
2017-Jan-16 08:33N 38°28' W 009°30'0 0.4
2017-Jan-16 07:33N 38°28' W 009°31'4 3.8
2017-Jan-16 06:33N 38°24' W 009°30'1 0.8
2017-Jan-16 05:33N 38°25' W 009°31'1 1.4
2017-Jan-16 04:33N 38°25' W 009°29'1110.9
2017-Jan-16 03:33N 38°14' W 009°25'1212.2
2017-Jan-16 02:33N 38°02' W 009°25'1212.1
2017-Jan-16 01:33N 37°50' W 009°25'  
2017-Jan-08 19:27N 36°07' W 000°10'0 0.3
2017-Jan-08 18:33N 36°07' W 000°10'10 9.8
2017-Jan-08 17:33N 35°59' W 000°17'2 1.1
2017-Jan-08 15:30N 35°58' W 000°19'71 5.4
2017-Jan-08 02:31N 37°07' W 000°00'8112.8
2017-Jan-07 20:07N 38°27' E 000°17'  
Track history (hours):
 
Tides and Currents Weather Stations Pressure Air Temp Water Temp Dewpoint Dewpoint Depression Visibility Wind Speed Wind Dir Waves Ship Positions

Queen Isabella

Last reported at 2017-Jan-17 18:33 UTC. Time now 2017-Jan-17 19:16 UTC.
Position N 37°42' W 009°34'.

Length 131 m; draft 6.1 m.

Type: Ship. MMSI: 636090959.

Date/timePositionNaut miles runAvg speedWind from/ knotsBaromVisibWave heightAir tempDewpointWater temp
2017-Jan-17 18:33N 37°42' W 009°34'1212.4
2017-Jan-17 17:33N 37°54' W 009°32'1212.5
2017-Jan-17 16:33N 38°07' W 009°30'1312.7
2017-Jan-17 15:32N 38°20' W 009°27'1212.7
2017-Jan-17 14:33N 38°32' W 009°25'1111.4
2017-Jan-17 13:33N 38°41' W 009°16'10 9.1
2017-Jan-17 12:29N 38°41' W 009°04'0 0.0
2017-Jan-17 11:32N 38°41' W 009°04'0 0.0
2017-Jan-17 10:32N 38°41' W 009°04'0 0.0
2017-Jan-17 09:29N 38°41' W 009°04'0 0.0
2017-Jan-17 08:32N 38°41' W 009°04'0 0.0
2017-Jan-17 07:32N 38°41' W 009°04'0 0.0
2017-Jan-17 06:32N 38°41' W 009°04'0 0.0
2017-Jan-17 05:29N 38°41' W 009°04'0 0.0
2017-Jan-17 04:29N 38°41' W 009°04'0 0.0
2017-Jan-17 03:32N 38°41' W 009°04'0 0.0
2017-Jan-17 02:32N 38°41' W 009°04'0 0.0
2017-Jan-17 01:32N 38°41' W 009°04'0 0.0
2017-Jan-17 00:32N 38°41' W 009°04'0 0.0
2017-Jan-16 23:32N 38°41' W 009°04'0 0.0
2017-Jan-16 22:32N 38°41' W 009°04'0 0.0
2017-Jan-16 21:29N 38°41' W 009°04'0 0.0
2017-Jan-16 20:32N 38°41' W 009°04'0 0.0
2017-Jan-16 19:32N 38°41' W 009°04'0 0.0
2017-Jan-16 18:32N 38°41' W 009°04'0 0.0
2017-Jan-16 17:32N 38°41' W 009°04'4 4.5
2017-Jan-16 16:34N 38°42' W 009°09'1212.2
2017-Jan-16 15:33N 38°38' W 009°24'2 2.3
2017-Jan-16 14:32N 38°37' W 009°27'8 8.0
2017-Jan-16 13:34N 38°29' W 009°28'3 2.9
2017-Jan-16 12:33N 38°26' W 009°28'1 0.8
2017-Jan-16 11:33N 38°27' W 009°29'1 0.8
2017-Jan-16 10:33N 38°27' W 009°29'1 0.7
2017-Jan-16 09:33N 38°28' W 009°30'1 0.7
2017-Jan-16 08:33N 38°28' W 009°30'0 0.4
2017-Jan-16 07:33N 38°28' W 009°31'4 3.8
2017-Jan-16 06:33N 38°24' W 009°30'1 0.8
2017-Jan-16 05:33N 38°25' W 009°31'1 1.4
2017-Jan-16 04:33N 38°25' W 009°29'1110.9
2017-Jan-16 03:33N 38°14' W 009°25'1212.2
2017-Jan-16 02:33N 38°02' W 009°25'1212.1
2017-Jan-16 01:33N 37°50' W 009°25'  
2017-Jan-08 19:27N 36°07' W 000°10'0 0.3
2017-Jan-08 18:33N 36°07' W 000°10'10 9.8
2017-Jan-08 17:33N 35°59' W 000°17'2 1.1
2017-Jan-08 15:30N 35°58' W 000°19'71 5.4
2017-Jan-08 02:31N 37°07' W 000°00'8112.8
2017-Jan-07 20:07N 38°27' E 000°17'  

Dump ship's entire track history